Time;durP1;ratioP1;P1;durP2;ratioP2;P2;SDS_P1;SDS_P2;PMS_P1;PMS_P2;Temp;Humidity;BMP_temperature;BMP_pressure;BME280_temperature;BME280_humidity;BME280_pressure;Samples;Min_cycle;Max_cycle;Signal;HPM_P1;HPM_P2
2022/07/11 00:01:40;;;;;;;0.17;0.17;;;;;;;14.02;100.00;101056.94;5073192;28;20678;-73
2022/07/11 00:04:06;;;;;;;0.37;0.37;;;;;;;14.02;100.00;101051.44;5073425;28;20174;-75
2022/07/11 00:06:31;;;;;;;0.13;0.13;;;;;;;14.04;100.00;101058.28;5072887;28;20206;-75
2022/07/11 00:08:56;;;;;;;0.10;0.10;;;;;;;13.99;100.00;101050.97;5072637;28;20174;-74
2022/07/11 00:11:22;;;;;;;1.00;0.97;;;;;;;13.95;100.00;101052.75;5073070;28;20653;-73
2022/07/11 00:13:47;;;;;;;0.30;0.30;;;;;;;13.93;100.00;101048.69;5073103;28;20301;-76
2022/07/11 00:16:13;;;;;;;0.40;0.40;;;;;;;13.92;100.00;101045.16;5073010;28;20555;-74
2022/07/11 00:18:38;;;;;;;0.00;0.00;;;;;;;13.94;100.00;101044.81;5072209;28;20175;-74
2022/07/11 00:21:04;;;;;;;0.00;0.00;;;;;;;13.95;100.00;101054.69;5072894;28;20175;-74
2022/07/11 00:23:29;;;;;;;0.10;0.10;;;;;;;13.95;100.00;101049.19;5072815;28;20181;-73
2022/07/11 00:25:55;;;;;;;0.00;0.00;;;;;;;13.92;100.00;101045.16;5072677;28;20720;-74
2022/07/11 00:28:20;;;;;;;0.33;0.30;;;;;;;13.91;100.00;101040.78;5072309;28;20179;-73
2022/07/11 00:30:45;;;;;;;0.00;0.00;;;;;;;13.88;100.00;101048.81;5072543;28;20174;-74
2022/07/11 00:33:11;;;;;;;0.03;0.03;;;;;;;13.85;100.00;101038.47;5072846;28;20270;-74
2022/07/11 00:35:36;;;;;;;0.50;0.50;;;;;;;13.84;100.00;101042.34;5072648;28;20578;-74
2022/07/11 00:38:02;;;;;;;0.10;0.10;;;;;;;13.84;100.00;101034.94;5070280;28;20312;-73
2022/07/11 00:40:27;;;;;;;0.17;0.17;;;;;;;13.85;100.00;101033.00;5072591;28;20254;-74
2022/07/11 00:42:52;;;;;;;0.47;0.33;;;;;;;13.84;100.00;101034.94;5072691;28;20183;-74
2022/07/11 00:45:18;;;;;;;0.27;0.27;;;;;;;13.83;100.00;101027.00;5069056;28;20651;-74
2022/07/11 00:47:43;;;;;;;0.23;0.07;;;;;;;13.81;100.00;101035.56;5071310;28;20182;-73
2022/07/11 00:50:09;;;;;;;0.00;0.00;;;;;;;13.83;100.00;101035.25;5072470;28;20270;-73
2022/07/11 00:52:35;;;;;;;0.00;0.00;;;;;;;13.84;100.00;101031.38;5072722;28;20619;-75
2022/07/11 00:55:02;;;;;;;0.00;0.00;;;;;;;13.81;100.00;101038.31;5072882;28;20213;-73
2022/07/11 00:57:27;;;;;;;1.40;0.57;;;;;;;13.80;100.00;101033.94;5072584;28;20179;-74
2022/07/11 00:59:53;;;;;;;0.00;0.00;;;;;;;13.81;100.00;101032.00;5072906;28;20316;-74
2022/07/11 01:02:18;;;;;;;0.00;0.00;;;;;;;13.82;100.00;101034.44;5072901;28;20206;-76
2022/07/11 01:04:44;;;;;;;0.07;0.00;;;;;;;13.80;100.00;101027.66;5074888;28;20212;-76
2022/07/11 01:07:09;;;;;;;0.27;0.27;;;;;;;13.76;100.00;101032.97;5073677;28;20177;-76
2022/07/11 01:09:35;;;;;;;0.00;0.00;;;;;;;13.76;100.00;101034.91;5072739;28;20179;-76
2022/07/11 01:12:00;;;;;;;0.00;0.00;;;;;;;13.74;100.00;101023.41;5072631;28;20162;-76
2022/07/11 01:14:26;;;;;;;0.10;0.10;;;;;;;13.74;100.00;101023.41;5072496;28;20171;-77
2022/07/11 01:16:51;;;;;;;0.50;0.50;;;;;;;13.73;100.00;101022.59;5072419;28;20266;-76
2022/07/11 01:19:17;;;;;;;0.20;0.20;;;;;;;13.72;100.00;101014.69;5072454;28;20640;-76
2022/07/11 01:21:48;;;;;;;0.00;0.00;;;;;;;13.69;100.00;101018.88;5072135;28;20532;-76
2022/07/11 01:24:14;;;;;;;0.00;0.00;;;;;;;13.67;100.00;101015.66;5072216;28;20626;-76
2022/07/11 01:26:40;;;;;;;0.00;0.00;;;;;;;13.65;100.00;101010.47;5071940;28;20285;-75
2022/07/11 01:29:08;;;;;;;0.00;0.00;;;;;;;13.65;100.00;101012.41;5071799;28;20528;-76
2022/07/11 01:31:34;;;;;;;4.53;4.33;;;;;;;13.62;100.00;101008.38;5072031;28;20170;-76
2022/07/11 01:33:59;;;;;;;0.00;0.00;;;;;;;13.61;100.00;101006.75;5071942;28;20173;-75
2022/07/11 01:36:25;;;;;;;0.10;0.10;;;;;;;13.59;100.00;101005.44;5071215;28;20241;-77
2022/07/11 01:38:50;;;;;;;0.43;0.10;;;;;;;13.57;100.00;101007.69;5071514;28;20170;-77
2022/07/11 01:41:15;;;;;;;0.00;0.00;;;;;;;13.53;100.00;101003.97;5070456;28;20213;-75
2022/07/11 01:43:41;;;;;;;0.00;0.00;;;;;;;13.51;100.00;101008.97;5071782;28;20168;-76
2022/07/11 01:46:06;;;;;;;0.47;0.30;;;;;;;13.51;100.00;101017.22;5070260;28;20214;-75
2022/07/11 01:48:32;;;;;;;0.00;0.00;;;;;;;13.51;100.00;101012.53;5071343;28;20166;-76
2022/07/11 01:50:57;;;;;;;0.00;0.00;;;;;;;13.52;100.00;101003.16;5071500;28;20232;-76
2022/07/11 01:53:23;;;;;;;0.33;0.30;;;;;;;13.52;100.00;101007.84;5071542;28;20630;-75
2022/07/11 01:55:48;;;;;;;0.00;0.00;;;;;;;13.52;100.00;101013.34;5071517;28;20166;-77
2022/07/11 01:58:14;;;;;;;0.00;0.00;;;;;;;13.53;100.00;101010.28;5071078;28;20206;-75
2022/07/11 02:00:39;;;;;;;0.00;0.00;;;;;;;13.56;100.00;101011.56;5070017;28;20572;-76
2022/07/11 02:03:04;;;;;;;0.00;0.00;;;;;;;13.54;100.00;101014.63;5071297;28;20210;-75
2022/07/11 02:05:30;;;;;;;0.10;0.10;;;;;;;13.50;100.00;101021.09;5071176;28;20210;-76
2022/07/11 02:08:14;;;;;;;0.00;0.00;;;;;;;13.49;100.00;101012.03;5070272;28;20168;-76
2022/07/11 02:10:44;;;;;;;0.00;0.00;;;;;;;13.50;100.00;101015.59;5071319;28;20371;-76
2022/07/11 02:13:12;;;;;;;0.00;0.00;;;;;;;13.47;100.00;101017.03;5071093;28;20174;-76
2022/07/11 02:15:38;;;;;;;0.00;0.00;;;;;;;13.48;100.00;101012.38;5067867;28;20189;-75
2022/07/11 02:18:04;;;;;;;0.00;0.00;;;;;;;13.46;100.00;101015.44;5070515;28;20206;-77
2022/07/11 02:20:29;;;;;;;0.00;0.00;;;;;;;13.47;100.00;101017.03;5071061;28;20713;-78
2022/07/11 02:22:56;;;;;;;0.00;0.00;;;;;;;13.48;100.00;101006.88;5071160;28;20178;-76
2022/07/11 02:25:22;;;;;;;0.10;0.10;;;;;;;13.46;100.00;101009.94;5071079;28;20236;-76
2022/07/11 02:27:47;;;;;;;0.00;0.00;;;;;;;13.46;100.00;101009.13;5070914;28;20177;-74
2022/07/11 02:30:13;;;;;;;0.00;0.00;;;;;;;13.47;100.00;101013.50;5070772;28;20179;-75
2022/07/11 02:32:38;;;;;;;0.00;0.00;;;;;;;13.48;100.00;101018.66;5071185;28;20254;-74
2022/07/11 02:35:04;;;;;;;0.00;0.00;;;;;;;13.49;100.00;101023.03;5071080;28;20179;-75
2022/07/11 02:37:30;;;;;;;26.77;0.40;;;;;;;13.49;100.00;101019.47;5070381;28;20484;-76
2022/07/11 02:39:55;;;;;;;0.83;0.83;;;;;;;13.48;100.00;101009.63;5070557;28;20204;-76
2022/07/11 02:42:20;;;;;;;0.13;0.13;;;;;;;13.49;100.00;101014.78;5071322;28;20201;-76
2022/07/11 02:44:46;;;;;;;0.00;0.00;;;;;;;13.50;100.00;101019.16;5070898;28;20692;-75
2022/07/11 02:47:13;;;;;;;0.00;0.00;;;;;;;13.51;100.00;101023.50;5070800;28;20206;-75
2022/07/11 02:49:39;;;;;;;0.40;0.40;;;;;;;13.52;100.00;101018.81;5070393;28;20194;-76
2022/07/11 02:52:05;;;;;;;0.00;0.00;;;;;;;13.53;100.00;101018.50;5070690;28;20192;-76
2022/07/11 02:54:30;;;;;;;0.10;0.10;;;;;;;13.52;100.00;101027.88;5070873;28;20652;-74
2022/07/11 02:56:56;;;;;;;0.00;0.00;;;;;;;13.51;100.00;101028.19;5070569;28;20266;-76
2022/07/11 02:59:21;;;;;;;0.00;0.00;;;;;;;13.55;100.00;101027.22;5070583;28;20173;-75
2022/07/11 03:01:47;;;;;;;0.00;0.00;;;;;;;13.53;100.00;101026.75;5070688;28;20175;-76
2022/07/11 03:04:12;;;;;;;0.20;0.10;;;;;;;13.57;100.00;101029.66;5070602;28;20184;-75
2022/07/11 03:06:38;;;;;;;0.10;0.10;;;;;;;13.59;100.00;101028.22;5070465;28;20538;-77
2022/07/11 03:09:05;;;;;;;0.00;0.00;;;;;;;13.59;100.00;101030.97;5070305;28;20328;-75
2022/07/11 03:11:31;;;;;;;0.30;0.30;;;;;;;13.61;100.00;101033.41;5070570;28;20877;-75
2022/07/11 03:13:57;;;;;;;0.27;0.27;;;;;;;13.61;100.00;101025.97;5070491;28;20162;-76
2022/07/11 03:16:22;;;;;;;0.00;0.00;;;;;;;13.64;100.00;101028.09;5070633;28;20231;-76
2022/07/11 03:18:47;;;;;;;0.00;0.00;;;;;;;13.70;100.00;101029.56;5072556;28;20634;-76
2022/07/11 03:21:13;;;;;;;0.00;0.00;;;;;;;13.73;100.00;101032.78;5074489;28;20261;-74
2022/07/11 03:23:38;;;;;;;0.00;0.00;;;;;;;13.73;100.00;101039.09;5073030;28;20239;-76
2022/07/11 03:26:04;;;;;;;0.20;0.20;;;;;;;13.72;100.00;101031.16;5074304;28;20198;-75
2022/07/11 03:28:29;;;;;;;0.00;0.00;;;;;;;13.74;100.00;101037.94;5074318;28;20167;-75
2022/07/11 03:30:54;;;;;;;0.10;0.10;;;;;;;13.74;100.00;101031.66;5074378;28;20717;-77
2022/07/11 03:33:20;;;;;;;0.07;0.07;;;;;;;13.75;100.00;101033.31;5074381;28;20586;-76
2022/07/11 03:35:46;;;;;;;0.00;0.00;;;;;;;13.73;100.00;101035.53;5072180;28;20182;-74
2022/07/11 03:38:12;;;;;;;0.00;0.00;;;;;;;13.73;100.00;101039.09;5073760;28;20181;-76
2022/07/11 03:40:38;;;;;;;0.00;0.00;;;;;;;13.74;100.00;101031.66;5074157;28;20227;-76
2022/07/11 03:43:04;;;;;;;0.17;0.10;;;;;;;13.74;100.00;101034.41;5074071;28;20262;-75
2022/07/11 03:45:29;;;;;;;0.67;0.67;;;;;;;13.75;100.00;101027.81;5073912;28;20194;-77
2022/07/11 03:47:55;;;;;;;0.00;0.00;;;;;;;13.73;100.00;101025.34;5073766;28;20232;-76
2022/07/11 03:50:20;;;;;;;0.00;0.00;;;;;;;13.74;100.00;101024.22;5073754;28;20189;-75
2022/07/11 03:52:46;;;;;;;0.40;0.40;;;;;;;13.74;100.00;101023.41;5074143;28;20171;-73
2022/07/11 03:55:12;;;;;;;0.77;0.77;;;;;;;13.77;100.00;101028.28;5073831;28;20181;-77
2022/07/11 03:57:38;;;;;;;0.00;0.00;;;;;;;13.79;100.00;101026.84;5072281;28;20562;-75
2022/07/11 04:00:06;;;;;;;0.10;0.10;;;;;;;13.80;100.00;101022.97;5073658;28;20170;-77
2022/07/11 04:02:32;;;;;;;0.10;0.10;;;;;;;13.86;100.00;101024.44;5072337;28;20178;-75
2022/07/11 04:04:58;;;;;;;0.57;0.57;;;;;;;13.89;100.00;101023.00;5073469;28;20191;-75
2022/07/11 04:07:23;;;;;;;0.10;0.00;;;;;;;13.85;100.00;101031.06;5073624;28;20250;-75
2022/07/11 04:09:48;;;;;;;0.00;0.00;;;;;;;13.86;100.00;101029.09;5073342;28;20174;-76
2022/07/11 04:12:14;;;;;;;0.00;0.00;;;;;;;13.88;100.00;101026.84;5073518;28;20253;-76
2022/07/11 04:14:39;;;;;;;0.00;0.00;;;;;;;13.90;100.00;101025.44;5073514;28;20171;-77
2022/07/11 04:17:05;;;;;;;0.00;0.00;;;;;;;13.91;100.00;101038.03;5073323;28;20626;-76
2022/07/11 04:19:30;;;;;;;0.10;0.10;;;;;;;13.92;100.00;101027.84;5073129;28;20220;-74
2022/07/11 04:21:56;;;;;;;0.00;0.00;;;;;;;13.95;100.00;101033.50;5073583;28;20178;-76
2022/07/11 04:24:21;;;;;;;0.00;0.00;;;;;;;13.97;100.00;101027.69;5073646;28;20201;-72
2022/07/11 04:26:47;;;;;;;0.00;0.00;;;;;;;13.97;100.00;101025.75;5073003;28;20897;-76
2022/07/11 04:29:12;;;;;;;0.70;0.30;;;;;;;14.00;100.00;101036.09;5071238;28;20185;-76
2022/07/11 04:31:37;;;;;;;0.10;0.10;;;;;;;14.02;100.00;101033.03;5071629;28;20174;-74
2022/07/11 04:34:03;;;;;;;0.00;0.00;;;;;;;14.00;100.00;101019.63;5073675;28;20239;-76
2022/07/11 04:36:28;;;;;;;0.20;0.20;;;;;;;14.02;100.00;101023.97;5072252;28;20637;-77
2022/07/11 04:38:53;;;;;;;0.37;0.37;;;;;;;13.98;100.00;101026.56;5072824;28;20170;-77
2022/07/11 04:41:19;;;;;;;0.03;0.03;;;;;;;13.94;100.00;101031.88;5071717;28;20178;-77
2022/07/11 04:43:44;;;;;;;0.67;0.67;;;;;;;13.93;100.00;101029.47;5071743;28;20215;-75
2022/07/11 04:46:10;;;;;;;0.00;0.00;;;;;;;13.94;100.00;101034.63;5071525;28;20677;-75
2022/07/11 04:48:37;;;;;;;0.17;0.13;;;;;;;13.96;100.00;101032.38;5072724;28;20637;-77
2022/07/11 04:51:04;;;;;;;0.73;0.73;;;;;;;13.93;100.00;101029.47;5072806;28;20201;-77
2022/07/11 04:53:29;;;;;;;3.50;2.47;;;;;;;13.92;100.00;101038.84;5072936;28;20190;-76
2022/07/11 04:55:55;;;;;;;0.23;0.23;;;;;;;13.92;100.00;101033.34;5072840;28;20175;-76
2022/07/11 04:58:20;;;;;;;0.00;0.00;;;;;;;13.92;100.00;101041.59;5072309;28;20249;-75
2022/07/11 05:00:45;;;;;;;0.10;0.10;;;;;;;13.93;100.00;101037.72;5071517;28;20242;-76
2022/07/11 05:03:11;;;;;;;0.00;0.00;;;;;;;13.94;100.00;101036.56;5072671;28;20261;-76
2022/07/11 05:05:36;;;;;;;0.00;0.00;;;;;;;13.96;100.00;101045.31;5071314;28;20299;-77
2022/07/11 05:08:01;;;;;;;0.00;0.00;;;;;;;13.91;100.00;101043.53;5072030;28;20194;-77
2022/07/11 05:10:27;;;;;;;0.00;0.00;;;;;;;13.85;100.00;101039.28;5072563;28;20179;-76
2022/07/11 05:12:52;;;;;;;0.20;0.20;;;;;;;13.95;100.00;101051.94;5072387;28;20170;-75
2022/07/11 05:15:17;;;;;;;2.37;1.53;;;;;;;14.00;100.00;101049.03;5072285;28;20175;-77
2022/07/11 05:17:43;;;;;;;0.33;0.33;;;;;;;14.06;100.00;101049.72;5072040;28;20268;-76
2022/07/11 05:20:09;;;;;;;0.00;0.00;;;;;;;14.10;100.00;101058.91;5072138;28;20182;-77
2022/07/11 05:22:34;;;;;;;1.27;0.63;;;;;;;14.08;100.00;101053.75;5072600;28;20171;-74
2022/07/11 05:24:59;;;;;;;0.00;0.00;;;;;;;14.13;100.00;101053.59;5072115;28;20185;-75
2022/07/11 05:27:25;;;;;;;0.40;0.40;;;;;;;14.15;100.00;101059.56;5070630;28;20202;-76
2022/07/11 05:29:50;;;;;;;0.00;0.00;;;;;;;14.15;100.00;101058.75;5071629;28;20182;-76
2022/07/11 05:32:15;;;;;;;0.87;0.87;;;;;;;14.13;100.00;101061.03;5072041;28;20197;-73
2022/07/11 05:34:41;;;;;;;0.83;0.83;;;;;;;14.14;100.00;101055.19;5072143;28;20558;-75
2022/07/11 05:37:06;;;;;;;0.10;0.10;;;;;;;14.14;100.00;101060.69;5069615;28;20666;-76
2022/07/11 05:39:32;;;;;;;0.20;0.20;;;;;;;14.18;100.00;101061.69;5070430;28;20521;-76
2022/07/11 05:41:57;;;;;;;0.00;0.00;;;;;;;14.22;100.00;101075.59;5070768;28;20178;-76
2022/07/11 05:44:22;;;;;;;0.77;0.67;;;;;;;14.19;100.00;101066.06;5071768;28;20170;-74
2022/07/11 05:46:48;;;;;;;0.60;0.60;;;;;;;14.23;100.00;101071.72;5071574;28;20286;-76
2022/07/11 05:49:13;;;;;;;0.53;0.53;;;;;;;14.16;100.00;101069.44;5071394;28;20265;-76
2022/07/11 05:51:39;;;;;;;0.07;0.03;;;;;;;14.15;100.00;101078.81;5072210;28;20198;-75
2022/07/11 05:54:04;;;;;;;0.50;0.50;;;;;;;14.13;100.00;101074.75;5071653;28;20166;-76
2022/07/11 05:56:30;;;;;;;0.50;0.50;;;;;;;14.12;100.00;101075.88;5071383;28;20556;-75
2022/07/11 05:58:56;;;;;;;4.20;1.03;;;;;;;14.09;100.00;101079.28;5071183;28;20178;-75
2022/07/11 06:01:22;;;;;;;0.23;0.23;;;;;;;14.08;100.00;101075.72;5071511;28;20197;-76
2022/07/11 06:03:48;;;;;;;0.87;0.87;;;;;;;14.06;100.00;101080.75;5071464;28;20183;-77
2022/07/11 06:06:13;;;;;;;0.00;0.00;;;;;;;14.07;100.00;101071.38;5071357;28;20559;-76
2022/07/11 06:08:42;;;;;;;0.00;0.00;;;;;;;14.06;100.00;101071.69;5071076;28;20171;-75
2022/07/11 06:11:14;;;;;;;0.00;0.00;;;;;;;14.04;100.00;101071.19;5071511;28;20173;-77
2022/07/11 06:13:41;;;;;;;0.00;0.00;;;;;;;14.12;100.00;101070.41;5071357;28;20185;-78
2022/07/11 06:16:07;;;;;;;0.00;0.00;;;;;;;14.11;100.00;101068.78;5069782;28;20194;-73
2022/07/11 06:18:34;;;;;;;0.13;0.13;;;;;;;14.12;100.00;101065.72;5070821;28;20174;-76
2022/07/11 06:20:59;;;;;;;0.00;0.00;;;;;;;14.18;100.00;101069.13;5071316;28;20178;-75
2022/07/11 06:23:24;;;;;;;0.40;0.40;;;;;;;14.22;100.00;101079.16;5071128;28;20229;-76
2022/07/11 06:25:50;;;;;;;0.67;0.67;;;;;;;14.23;100.00;101075.28;5071060;28;20301;-74
2022/07/11 06:28:15;;;;;;;0.70;0.70;;;;;;;14.26;100.00;101082.88;5070782;28;20622;-74
2022/07/11 06:30:41;;;;;;;0.10;0.10;;;;;;;14.25;100.00;101077.69;5070985;28;20653;-75
2022/07/11 06:33:06;;;;;;;0.10;0.10;;;;;;;14.35;100.00;101082.09;5071187;28;20180;-76
2022/07/11 06:35:31;;;;;;;0.10;0.10;;;;;;;14.40;100.00;101076.44;5066411;28;20186;-73
2022/07/11 06:37:57;;;;;;;0.20;0.20;;;;;;;14.53;100.00;101075.50;5069407;28;20197;-73
2022/07/11 06:40:23;;;;;;;3.23;2.10;;;;;;;14.65;100.00;101072.94;5070786;28;20237;-77
2022/07/11 06:42:48;;;;;;;2.07;1.17;;;;;;;14.73;100.00;101069.34;5070861;28;20174;-75
2022/07/11 06:45:14;;;;;;;0.13;0.13;;;;;;;14.82;100.00;101072.13;5070835;28;20203;-75
2022/07/11 06:47:39;;;;;;;0.00;0.00;;;;;;;14.91;100.00;101080.38;5070728;28;20515;-76
2022/07/11 06:50:05;;;;;;;0.40;0.40;;;;;;;14.96;100.00;101080.19;5070368;28;20261;-76
2022/07/11 06:52:31;;;;;;;0.23;0.23;;;;;;;15.05;100.00;101072.75;5070339;28;20202;-76
2022/07/11 06:54:58;;;;;;;0.00;0.00;;;;;;;15.12;100.00;101082.13;5069745;28;20174;-75
2022/07/11 06:57:23;;;;;;;0.00;0.00;;;;;;;15.26;100.00;101072.88;5070575;28;20248;-75
2022/07/11 06:59:49;;;;;;;0.00;0.00;;;;;;;15.45;100.00;101068.59;5070330;28;20265;-74
2022/07/11 07:02:14;;;;;;;0.00;0.00;;;;;;;15.61;99.44;101068.09;5070658;28;20183;-75
2022/07/11 07:04:39;;;;;;;0.00;0.00;;;;;;;15.75;98.08;101072.22;5070669;28;20205;-74
2022/07/11 07:07:05;;;;;;;0.43;0.00;;;;;;;15.81;94.82;101083.91;5070281;28;20587;-74
2022/07/11 07:09:30;;;;;;;0.00;0.00;;;;;;;15.83;91.81;101081.63;5070390;28;20174;-76
2022/07/11 07:11:55;;;;;;;0.00;0.00;;;;;;;15.98;90.06;101080.25;5070673;28;20174;-76
2022/07/11 07:14:22;;;;;;;0.00;0.00;;;;;;;16.05;87.97;101077.75;5070576;28;20614;-76
2022/07/11 07:16:47;;;;;;;0.00;0.00;;;;;;;16.16;87.86;101078.19;5070294;28;20703;-77
2022/07/11 07:19:13;;;;;;;0.00;0.00;;;;;;;16.32;88.54;101082.78;5070427;28;20312;-76
2022/07/11 07:21:39;;;;;;;0.00;0.00;;;;;;;16.34;87.59;101082.47;5069019;28;20235;-76
2022/07/11 07:24:05;;;;;;;0.13;0.13;;;;;;;16.38;86.09;101079.88;5070440;28;20175;-77
2022/07/11 07:26:31;;;;;;;0.47;0.47;;;;;;;16.39;86.29;101087.78;5070363;28;20210;-76
2022/07/11 07:28:56;;;;;;;0.10;0.03;;;;;;;16.39;86.38;101078.72;5070102;28;20184;-75
2022/07/11 07:31:22;;;;;;;0.00;0.00;;;;;;;16.18;85.24;101075.91;5070481;28;20573;-77
2022/07/11 07:33:48;;;;;;;0.00;0.00;;;;;;;16.22;86.66;101093.44;5070659;28;20174;-76
2022/07/11 07:36:14;;;;;;;0.00;0.00;;;;;;;16.17;85.14;101099.13;5069448;28;20185;-76
2022/07/11 07:38:41;;;;;;;0.20;0.20;;;;;;;16.19;85.06;101096.81;5070127;28;20452;-77
2022/07/11 07:41:06;;;;;;;0.00;0.00;;;;;;;16.16;84.69;101094.75;5068952;28;20688;-76
2022/07/11 07:43:32;;;;;;;0.00;0.00;;;;;;;16.20;85.16;101096.53;5070364;28;20174;-76
2022/07/11 07:45:57;;;;;;;0.00;0.00;;;;;;;16.29;85.62;101093.69;5069851;28;20249;-76
2022/07/11 07:48:23;;;;;;;0.00;0.00;;;;;;;16.28;86.69;101090.13;5064289;28;20552;-76
2022/07/11 07:50:48;;;;;;;0.07;0.07;;;;;;;16.13;87.18;101098.97;5064693;28;20194;-79
2022/07/11 07:53:15;;;;;;;0.10;0.10;;;;;;;16.04;87.83;101104.53;5066780;28;20612;-76
2022/07/11 07:55:40;;;;;;;0.23;0.23;;;;;;;16.05;88.26;101100.63;5065523;28;20252;-77
2022/07/11 07:58:05;;;;;;;0.00;0.00;;;;;;;15.99;88.10;101103.91;5066888;28;20174;-75
2022/07/11 08:03:15;;;;;;;0.00;0.00;;;;;;;16.03;87.54;101105.66;5064936;28;20182;-75
2022/07/11 08:05:40;;;;;;;0.00;0.00;;;;;;;16.15;87.62;101106.91;5071868;28;20566;-75
2022/07/11 08:08:06;;;;;;;0.00;0.00;;;;;;;16.22;87.07;101107.22;5073462;28;20465;-75
2022/07/11 08:10:31;;;;;;;0.13;0.00;;;;;;;16.30;86.28;101104.38;5073970;28;20193;-72
2022/07/11 08:12:56;;;;;;;0.23;0.23;;;;;;;16.35;85.97;101106.16;5073610;28;20178;-74
2022/07/11 08:15:22;;;;;;;0.30;0.30;;;;;;;16.26;85.93;101113.66;5073573;28;20178;-77
2022/07/11 08:17:47;;;;;;;14.83;0.60;;;;;;;16.13;85.97;101112.75;5073149;28;20175;-76
2022/07/11 08:20:12;;;;;;;0.33;0.33;;;;;;;16.00;86.15;101125.63;5073148;28;20841;-77
2022/07/11 08:22:38;;;;;;;0.20;0.20;;;;;;;15.95;86.36;101114.81;5073342;28;20217;-77
2022/07/11 08:25:03;;;;;;;0.47;0.47;;;;;;;16.03;86.09;101127.72;5073214;28;20197;-77
2022/07/11 08:27:29;;;;;;;0.23;0.23;;;;;;;16.01;85.35;101123.69;5072074;28;20179;-76
2022/07/11 08:29:54;;;;;;;0.00;0.00;;;;;;;16.04;86.34;101123.81;5072965;28;20182;-76
2022/07/11 08:32:19;;;;;;;0.37;0.37;;;;;;;16.11;86.46;101117.81;5073130;28;20269;-77
2022/07/11 08:34:45;;;;;;;0.00;0.00;;;;;;;16.08;85.99;101117.66;5073106;28;20232;-77
2022/07/11 08:37:11;;;;;;;0.00;0.00;;;;;;;16.18;85.91;101131.06;5072974;28;20171;-77
2022/07/11 08:39:36;;;;;;;0.00;0.00;;;;;;;16.26;84.44;101128.25;5072909;28;20526;-77
2022/07/11 08:42:02;;;;;;;0.00;0.00;;;;;;;16.42;84.49;101122.16;5073131;28;20174;-78
2022/07/11 08:44:27;;;;;;;0.20;0.20;;;;;;;16.45;83.26;101130.56;5069381;28;20179;-76
2022/07/11 08:46:54;;;;;;;0.20;0.20;;;;;;;16.50;82.90;101127.66;5070016;28;20301;-77
2022/07/11 08:49:20;;;;;;;0.00;0.00;;;;;;;16.56;82.97;101122.72;5072392;28;20190;-79
2022/07/11 08:51:47;;;;;;;0.20;0.20;;;;;;;16.60;81.84;101123.66;5072728;28;20649;-76
2022/07/11 08:54:12;;;;;;;0.40;0.40;;;;;;;16.53;81.93;101129.72;5072864;28;20666;-77
2022/07/11 08:56:38;;;;;;;0.20;0.20;;;;;;;16.46;82.35;101132.19;5072544;28;20179;-76
2022/07/11 08:59:04;;;;;;;0.10;0.10;;;;;;;16.48;82.23;101126.34;5070328;28;20171;-75
2022/07/11 09:01:34;;;;;;;0.00;0.00;;;;;;;16.51;82.52;101129.25;5072638;28;20182;-78
2022/07/11 09:04:00;;;;;;;0.07;0.07;;;;;;;16.66;83.51;101128.66;5072638;28;20219;-79
2022/07/11 09:06:27;;;;;;;0.20;0.20;;;;;;;16.83;83.78;101133.28;5072545;28;20202;-76
2022/07/11 09:09:00;;;;;;;0.00;0.00;;;;;;;16.82;83.85;101133.63;5072222;28;20178;-74
2022/07/11 09:11:25;;;;;;;0.10;0.10;;;;;;;16.92;83.48;101122.97;5072255;28;20170;-75
2022/07/11 09:13:51;;;;;;;0.00;0.00;;;;;;;17.01;82.00;101120.13;5071953;28;20441;-76
2022/07/11 09:16:26;;;;;;;0.00;0.00;;;;;;;17.16;82.16;101127.78;5071707;28;20178;-75
2022/07/11 09:18:52;;;;;;;0.77;0.77;;;;;;;17.16;81.92;101126.97;5071211;28;20193;-75
2022/07/11 09:26:50;;;;;;;0.60;0.60;;;;;;;17.01;82.04;101119.31;5071409;28;20212;-76
2022/07/11 09:29:16;;;;;;;0.00;0.00;;;;;;;17.12;82.21;101118.56;5071409;28;20170;-74
2022/07/11 09:31:44;;;;;;;0.30;0.30;;;;;;;17.13;81.19;101125.72;5071516;28;20676;-75
2022/07/11 09:34:18;;;;;;;0.00;0.00;;;;;;;17.27;81.03;101108.03;5072128;28;20201;-74
2022/07/11 09:36:47;;;;;;;0.97;0.87;;;;;;;17.40;79.67;101116.03;5071156;28;20668;-75
2022/07/11 09:39:20;;;;;;;0.00;0.00;;;;;;;17.45;79.57;101120.53;5071132;28;20171;-73
2022/07/11 09:41:47;;;;;;;0.00;0.00;;;;;;;17.58;78.67;101116.63;5071388;28;20317;-75
2022/07/11 09:44:18;;;;;;;0.10;0.10;;;;;;;17.49;77.22;101116.72;5070722;28;20210;-73
2022/07/11 09:46:46;;;;;;;0.10;0.10;;;;;;;17.50;77.47;101112.84;5070871;28;20379;-74
2022/07/11 09:49:12;;;;;;;0.00;0.00;;;;;;;17.54;77.54;101113.75;5067604;28;20190;-76
2022/07/11 09:51:38;;;;;;;0.30;0.30;;;;;;;17.58;77.40;101113.88;5070472;28;20173;-74
2022/07/11 09:54:05;;;;;;;0.67;0.50;;;;;;;17.40;76.98;101115.22;5070420;28;20257;-75
2022/07/11 09:56:42;;;;;;;0.00;0.00;;;;;;;17.38;78.01;101120.28;5071152;28;20171;-74
2022/07/11 09:59:11;;;;;;;0.00;0.00;;;;;;;17.35;78.02;101118.97;5069179;28;20174;-76
2022/07/11 10:01:37;;;;;;;0.00;0.00;;;;;;;17.37;78.73;101110.38;5070868;28;20175;-75
2022/07/11 10:04:05;;;;;;;0.00;0.00;;;;;;;17.32;79.04;101111.38;5071135;28;20179;-73
2022/07/11 10:06:30;;;;;;;0.10;0.10;;;;;;;17.31;79.41;101118.06;5071042;28;20255;-76
2022/07/11 10:08:56;;;;;;;0.20;0.10;;;;;;;17.29;79.95;101116.78;5070583;28;20182;-75
2022/07/11 10:11:21;;;;;;;0.00;0.00;;;;;;;17.20;79.03;101108.56;5070744;28;20171;-74
2022/07/11 10:13:47;;;;;;;0.10;0.10;;;;;;;17.28;79.43;101115.19;5069393;28;20653;-75
2022/07/11 10:16:32;;;;;;;0.00;0.00;;;;;;;17.37;79.87;101119.47;5071036;28;20589;-74
2022/07/11 10:19:26;;;;;;;0.00;0.00;;;;;;;17.43;79.57;101112.56;5062745;28;20194;-74
2022/07/11 10:22:16;;;;;;;0.00;0.00;;;;;;;17.50;79.42;101120.28;5071168;28;20167;-76
2022/07/11 10:25:14;;;;;;;0.00;0.00;;;;;;;17.60;78.72;101111.56;5070822;28;20422;-74
2022/07/11 10:27:49;;;;;;;0.60;0.60;;;;;;;17.71;78.89;101112.78;5069780;28;20650;-75
2022/07/11 10:30:50;;;;;;;0.00;0.00;;;;;;;17.88;78.16;101116.50;5070065;28;20630;-74
2022/07/11 10:33:17;;;;;;;0.00;0.00;;;;;;;18.09;77.33;101123.53;5070770;28;20198;-73
2022/07/11 10:35:48;;;;;;;0.30;0.30;;;;;;;18.28;77.15;101120.19;5070408;28;20717;-74
2022/07/11 10:38:14;;;;;;;0.00;0.00;;;;;;;18.40;76.03;101114.66;5069802;28;20190;-73
2022/07/11 10:40:41;;;;;;;0.00;0.00;;;;;;;18.42;75.19;101112.34;5070478;28;20345;-74
2022/07/11 10:43:06;;;;;;;0.07;0.07;;;;;;;18.62;75.33;101116.09;5070386;28;20678;-73
2022/07/11 10:45:56;;;;;;;0.00;0.00;;;;;;;18.39;74.02;101115.00;5070272;28;20734;-75
2022/07/11 10:48:23;;;;;;;0.00;0.00;;;;;;;18.60;75.12;101118.41;5069732;28;20579;-74
2022/07/11 10:51:01;;;;;;;0.00;0.00;;;;;;;18.63;73.50;101117.72;5069291;28;20231;-73
2022/07/11 10:53:31;;;;;;;0.10;0.10;;;;;;;18.64;74.43;101118.53;5070249;28;20456;-74
2022/07/11 10:56:25;;;;;;;0.87;0.37;;;;;;;18.64;74.21;101111.03;5070244;28;20265;-74
2022/07/11 10:59:06;;;;;;;7.13;0.27;;;;;;;18.59;74.42;101113.22;5069701;28;20223;-73
2022/07/11 11:01:32;;;;;;;0.00;0.00;;;;;;;18.68;74.16;101111.16;5070051;28;20198;-75
2022/07/11 11:04:35;;;;;;;0.00;0.00;;;;;;;18.52;72.78;101108.28;5070279;28;20175;-75
2022/07/11 11:07:01;;;;;;;0.00;0.00;;;;;;;18.88;73.02;101109.38;5069745;28;20206;-75
2022/07/11 11:09:39;;;;;;;0.00;0.00;;;;;;;18.99;73.11;101110.50;5070233;28;20225;-76
2022/07/11 11:12:04;;;;;;;0.00;0.00;;;;;;;18.91;73.23;101117.78;5070176;28;20240;-75
2022/07/11 11:14:30;;;;;;;0.00;0.00;;;;;;;18.80;73.47;101113.88;5069965;28;20183;-74
2022/07/11 11:17:35;;;;;;;0.00;0.00;;;;;;;18.62;73.31;101115.28;5069826;28;20178;-75
2022/07/11 11:20:02;;;;;;;0.10;0.10;;;;;;;18.39;73.53;101107.50;5066221;28;20186;-73
2022/07/11 11:22:28;;;;;;;0.00;0.00;;;;;;;18.36;74.93;101116.47;5070017;28;20166;-73
2022/07/11 11:24:56;;;;;;;0.00;0.00;;;;;;;18.27;75.31;101117.78;5069874;28;20178;-72
2022/07/11 11:27:23;;;;;;;0.00;0.00;;;;;;;18.27;75.92;101118.56;5069666;28;20225;-72